createdAt,value
2018-10-11T00:01:11.898Z,15.90
2018-10-11T00:03:41.538Z,15.90
2018-10-11T00:06:11.370Z,16.00
2018-10-11T00:08:41.104Z,16.00
2018-10-11T00:11:10.698Z,16.00
2018-10-11T00:13:40.627Z,16.00
2018-10-11T00:16:10.341Z,16.00
2018-10-11T00:18:39.920Z,16.10
2018-10-11T00:21:09.856Z,16.20
2018-10-11T00:23:39.316Z,16.20
2018-10-11T00:26:09.587Z,16.20
2018-10-11T00:31:09.210Z,16.10
2018-10-11T00:33:38.744Z,16.00
2018-10-11T00:36:09.353Z,16.00
2018-10-11T00:38:38.977Z,15.90
2018-10-11T00:41:08.517Z,15.90
2018-10-11T00:43:38.992Z,15.90
2018-10-11T00:48:37.796Z,15.70
2018-10-11T00:51:07.762Z,15.80
2018-10-11T00:53:37.508Z,15.80
2018-10-11T00:56:07.036Z,15.90
2018-10-11T00:58:37.018Z,15.80
2018-10-11T01:01:06.519Z,15.60
2018-10-11T01:03:36.131Z,15.50
2018-10-11T01:06:06.254Z,15.50
2018-10-11T01:08:35.851Z,15.40
2018-10-11T01:11:05.457Z,15.30
2018-10-11T01:13:35.621Z,15.20
2018-10-11T01:16:05.053Z,15.20
2018-10-11T01:18:35.298Z,15.20
2018-10-11T01:21:05.348Z,15.10
2018-10-11T01:23:35.556Z,15.10
2018-10-11T01:26:05.211Z,15.20
2018-10-11T01:28:35.231Z,15.20
2018-10-11T01:31:09.950Z,15.20
2018-10-11T01:33:39.368Z,15.20
2018-10-11T01:36:09.284Z,15.10
2018-10-11T01:38:39.098Z,15.10
2018-10-11T01:41:08.700Z,15.10
2018-10-11T01:43:38.582Z,15.20
2018-10-11T01:46:08.444Z,15.10
2018-10-11T01:48:38.174Z,15.20
2018-10-11T01:51:08.403Z,15.10
2018-10-11T01:53:38.775Z,15.10
2018-10-11T01:58:39.583Z,14.90
2018-10-11T02:01:09.230Z,15.00
2018-10-11T02:03:38.816Z,14.90
2018-10-11T02:06:08.841Z,14.90
2018-10-11T02:08:38.790Z,14.90
2018-10-11T02:11:08.242Z,15.00
2018-10-11T02:13:38.316Z,14.90
2018-10-11T02:16:07.740Z,14.90
2018-10-11T02:18:37.189Z,14.70
2018-10-11T02:21:07.393Z,14.60
2018-10-11T02:23:37.157Z,14.70
2018-10-11T02:26:06.656Z,14.60
2018-10-11T02:28:36.784Z,14.60
2018-10-11T02:31:06.237Z,14.60
2018-10-11T02:33:35.756Z,14.60
2018-10-11T02:36:05.159Z,14.70
2018-10-11T02:38:34.711Z,14.70
2018-10-11T02:41:05.543Z,14.70
2018-10-11T02:43:35.610Z,14.60
2018-10-11T02:46:05.243Z,14.40
2018-10-11T02:48:35.148Z,14.30
2018-10-11T02:51:04.585Z,14.20
2018-10-11T02:53:34.259Z,14.30
2018-10-11T02:56:04.275Z,14.30
2018-10-11T02:58:44.715Z,14.30
2018-10-11T03:01:14.664Z,14.30
2018-10-11T03:03:44.284Z,14.30
2018-10-11T03:08:43.792Z,14.20
2018-10-11T03:13:45.806Z,14.00
2018-10-11T03:18:44.237Z,14.00
2018-10-11T03:21:14.083Z,14.00
2018-10-11T03:23:43.461Z,13.90
2018-10-11T03:26:14.158Z,13.80
2018-10-11T03:28:44.893Z,13.80
2018-10-11T03:31:14.960Z,13.80
2018-10-11T03:33:44.505Z,13.80
2018-10-11T03:36:14.468Z,13.80
2018-10-11T03:41:13.472Z,13.50
2018-10-11T03:43:43.268Z,13.40
2018-10-11T03:46:13.000Z,13.30
2018-10-11T03:48:42.562Z,13.30
2018-10-11T03:51:12.481Z,13.30
2018-10-11T03:56:10.742Z,13.30
2018-10-11T03:58:40.647Z,13.20
2018-10-11T04:06:08.571Z,13.10
2018-10-11T04:08:37.968Z,13.20
2018-10-11T04:11:07.437Z,13.30
2018-10-11T04:13:38.343Z,13.40
2018-10-11T04:16:18.633Z,13.50
2018-10-11T04:21:19.706Z,13.50
2018-10-11T04:23:49.352Z,13.50
2018-10-11T04:26:19.414Z,13.50
2018-10-11T04:28:50.566Z,13.50
2018-10-11T04:31:20.048Z,13.50
2018-10-11T04:33:49.867Z,13.50
2018-10-11T04:44:12.658Z,13.60
2018-10-11T04:46:56.772Z,13.60
2018-10-11T04:49:34.268Z,13.60
2018-10-11T04:52:24.959Z,13.70
2018-10-11T04:55:26.927Z,13.70
2018-10-11T04:58:18.240Z,13.70
2018-10-11T05:03:53.100Z,13.60
2018-10-11T05:06:23.225Z,13.60
2018-10-11T05:08:54.260Z,13.60
2018-10-11T05:11:24.875Z,13.60
2018-10-11T05:13:56.534Z,13.60
2018-10-11T05:26:24.135Z,13.60
2018-10-11T05:31:24.451Z,13.50
2018-10-11T05:39:04.740Z,13.40
2018-10-11T05:41:45.505Z,13.40
2018-10-11T05:44:15.704Z,13.30
2018-10-11T05:46:47.377Z,13.20
2018-10-11T05:49:24.669Z,13.10
2018-10-11T05:54:24.525Z,13.10
2018-10-11T05:59:30.505Z,13.30
2018-10-11T06:02:02.046Z,13.40
2018-10-11T06:04:31.947Z,13.40
2018-10-11T06:07:02.478Z,13.50
2018-10-11T06:12:01.925Z,13.70
2018-10-11T06:14:32.002Z,13.70
2018-10-11T06:17:02.545Z,13.80
2018-10-11T06:22:02.366Z,13.80
2018-10-11T06:24:45.371Z,13.80
2018-10-11T06:29:50.789Z,14.00
2018-10-11T06:34:57.532Z,14.10
2018-10-11T06:39:59.535Z,14.20
2018-10-11T06:42:29.954Z,14.30
2018-10-11T06:45:01.101Z,14.40
2018-10-11T06:52:32.505Z,14.50
2018-10-11T06:55:04.141Z,14.60
2018-10-11T07:02:35.598Z,15.00
2018-10-11T07:05:05.529Z,15.10
2018-10-11T07:10:07.917Z,15.30
2018-10-11T07:12:40.353Z,15.40
2018-10-11T07:17:40.072Z,15.60
2018-10-11T07:22:44.148Z,15.80
2018-10-11T07:25:26.451Z,15.90
2018-10-11T07:27:58.428Z,16.00
2018-10-11T07:35:31.544Z,16.30
2018-10-11T07:38:01.129Z,16.40
2018-10-11T07:40:32.790Z,16.40
2018-10-11T07:43:04.249Z,16.60
2018-10-11T07:45:33.920Z,16.70
2018-10-11T07:50:41.374Z,16.90
2018-10-11T08:00:51.554Z,17.60
2018-10-11T08:03:21.828Z,17.70
2018-10-11T08:05:55.168Z,17.80
2018-10-11T08:08:42.019Z,17.80
2018-10-11T08:14:12.089Z,18.00
2018-10-11T08:16:43.564Z,18.10
2018-10-11T08:25:11.694Z,18.60
2018-10-11T08:27:44.305Z,18.90
2018-10-11T08:35:35.898Z,19.60
2018-10-11T08:41:19.495Z,19.70
2018-10-11T08:48:01.511Z,20.20
2018-10-11T08:50:56.922Z,20.60
2018-10-11T08:54:01.575Z,20.60
2018-10-11T08:57:00.771Z,20.70
2018-10-11T09:00:12.382Z,20.70
2018-10-11T09:03:06.781Z,20.70
2018-10-11T09:05:53.327Z,20.80
2018-10-11T09:09:09.904Z,20.80
2018-10-11T09:14:40.896Z,20.80
2018-10-11T09:20:27.516Z,20.70
2018-10-11T09:23:18.267Z,20.60
2018-10-11T09:25:49.074Z,20.70
2018-10-11T09:28:18.527Z,20.60
2018-10-11T09:30:55.546Z,20.60
2018-10-11T09:33:25.833Z,20.40
2018-10-11T09:35:55.421Z,20.50
2018-10-11T09:38:28.121Z,20.60
2018-10-11T09:43:32.057Z,20.60
2018-10-11T09:48:40.516Z,20.80
2018-10-11T09:54:02.536Z,20.90
2018-10-11T09:57:40.921Z,20.80
2018-10-11T10:00:19.316Z,20.80
2018-10-11T10:02:50.556Z,20.80
2018-10-11T10:07:50.239Z,20.90
2018-10-11T10:12:51.475Z,21.10
2018-10-11T10:17:56.963Z,21.10
2018-10-11T10:20:27.846Z,21.10
2018-10-11T10:22:58.551Z,21.10
2018-10-11T10:25:29.132Z,21.20
2018-10-11T10:27:58.554Z,21.20
2018-10-11T10:30:33.496Z,21.40
2018-10-11T10:33:04.702Z,21.40
2018-10-11T10:35:35.404Z,21.50
2018-10-11T10:38:15.919Z,21.50
2018-10-11T10:40:48.428Z,21.50
2018-10-11T10:45:51.516Z,21.70
2018-10-11T10:48:21.736Z,21.90
2018-10-11T10:53:25.399Z,21.90
2018-10-11T10:55:55.471Z,22.00
2018-10-11T10:58:25.313Z,22.00
2018-10-11T11:03:25.036Z,22.10
2018-10-11T11:05:54.432Z,22.10
2018-10-11T11:08:23.985Z,22.10
2018-10-11T11:10:53.668Z,22.10
2018-10-11T11:15:53.192Z,22.10
2018-10-11T11:18:22.680Z,22.10
2018-10-11T11:20:53.727Z,22.10
2018-10-11T11:23:23.360Z,22.20
2018-10-11T11:25:52.924Z,22.10
2018-10-11T11:28:25.206Z,22.10
2018-10-11T11:33:24.971Z,22.10
2018-10-11T11:35:55.036Z,22.10
2018-10-11T11:38:25.292Z,22.10
2018-10-11T11:40:54.728Z,22.30
2018-10-11T11:43:24.201Z,22.60
2018-10-11T11:45:54.045Z,22.90
2018-10-11T11:48:29.326Z,23.10
2018-10-11T11:53:28.821Z,23.20
2018-10-11T11:56:00.367Z,22.90
2018-10-11T11:58:30.944Z,22.70
2018-10-11T12:01:02.685Z,22.50
2018-10-11T12:03:35.753Z,22.40
2018-10-11T12:08:38.240Z,22.20
2018-10-11T12:11:09.944Z,22.10
2018-10-11T12:13:45.293Z,22.20
2018-10-11T12:16:16.039Z,22.10
2018-10-11T12:18:50.528Z,22.20
2018-10-11T12:23:58.366Z,22.00
2018-10-11T12:26:32.640Z,22.00
2018-10-11T12:31:35.648Z,22.00
2018-10-11T12:36:37.167Z,22.00
2018-10-11T12:39:08.474Z,21.90
2018-10-11T12:44:22.968Z,21.80
2018-10-11T12:49:47.450Z,21.90
2018-10-11T12:54:44.307Z,21.90
2018-10-11T12:57:18.482Z,21.80
2018-10-11T12:59:50.215Z,21.80
2018-10-11T13:02:20.268Z,21.90
2018-10-11T13:07:45.823Z,21.90
2018-10-11T13:10:19.195Z,21.90
2018-10-11T13:12:49.594Z,22.00
2018-10-11T13:18:11.590Z,22.00
2018-10-11T13:20:59.145Z,21.90
2018-10-11T13:26:02.339Z,22.00
2018-10-11T13:28:34.388Z,22.10
2018-10-11T13:31:04.232Z,22.10
2018-10-11T13:33:36.142Z,22.10
2018-10-11T13:38:44.082Z,22.10
2018-10-11T13:41:13.691Z,22.10
2018-10-11T13:48:50.895Z,22.10
2018-10-11T13:51:32.958Z,22.10
2018-10-11T13:56:55.536Z,22.10
2018-10-11T13:59:19.586Z,22.10
2018-10-11T14:01:51.458Z,22.10
2018-10-11T14:04:22.417Z,22.10
2018-10-11T14:06:53.454Z,22.10
2018-10-11T14:09:45.167Z,22.40
2018-10-11T14:27:38.770Z,22.40
2018-10-11T14:30:28.716Z,22.40
2018-10-11T14:33:05.917Z,22.40
2018-10-11T14:35:38.405Z,22.40
2018-10-11T14:38:12.199Z,22.40
2018-10-11T14:40:42.788Z,22.40
2018-10-11T14:43:13.911Z,22.40
2018-10-11T14:45:44.663Z,22.40
2018-10-11T14:48:15.715Z,22.50
2018-10-11T14:50:45.615Z,22.50
2018-10-11T14:53:15.721Z,22.50
2018-10-11T14:58:16.266Z,22.50
2018-10-11T15:00:45.855Z,22.50
2018-10-11T15:03:18.514Z,22.50
2018-10-11T15:05:52.696Z,22.50
2018-10-11T15:08:22.366Z,22.50
2018-10-11T15:10:55.590Z,22.40
2018-10-11T15:15:57.997Z,22.40
2018-10-11T15:18:30.790Z,22.50
2018-10-11T15:23:47.265Z,22.50
2018-10-11T15:29:10.426Z,22.60
2018-10-11T15:37:17.039Z,22.70
2018-10-11T15:42:46.568Z,22.70
2018-10-11T15:45:24.959Z,22.70
2018-10-11T15:48:10.700Z,22.70
2018-10-11T15:50:47.266Z,22.60
2018-10-11T15:55:57.690Z,22.60
2018-10-11T15:58:44.918Z,22.60
2018-10-11T16:01:30.924Z,22.50
2018-10-11T16:04:10.732Z,22.60
2018-10-11T16:12:14.433Z,22.50
2018-10-11T16:14:59.468Z,22.50
2018-10-11T16:20:15.342Z,22.40
2018-10-11T16:22:55.104Z,22.40
2018-10-11T16:25:25.692Z,22.30
2018-10-11T16:27:55.663Z,22.30
2018-10-11T16:30:28.980Z,22.30
2018-10-11T16:35:31.563Z,22.30
2018-10-11T16:38:01.919Z,22.20
2018-10-11T16:40:31.474Z,22.20
2018-10-11T16:45:35.142Z,22.20
2018-10-11T16:48:04.877Z,22.10
2018-10-11T16:50:34.504Z,22.10
2018-10-11T16:53:05.669Z,22.10
2018-10-11T16:55:42.473Z,22.10
2018-10-11T17:00:44.135Z,22.00
2018-10-11T17:03:14.818Z,22.00
2018-10-11T17:05:45.848Z,21.90
2018-10-11T17:08:15.401Z,21.90
2018-10-11T17:10:47.081Z,21.80
2018-10-11T17:13:17.255Z,21.70
2018-10-11T17:15:49.235Z,21.70
2018-10-11T17:18:22.126Z,21.70
2018-10-11T17:20:52.265Z,21.60
2018-10-11T17:23:22.008Z,21.60
2018-10-11T17:30:57.147Z,21.40
2018-10-11T17:36:00.471Z,21.20
2018-10-11T17:38:36.286Z,21.10
2018-10-11T17:41:07.739Z,21.10
2018-10-11T17:43:39.878Z,21.10
2018-10-11T17:46:19.551Z,21.00
2018-10-11T17:48:55.752Z,21.00
2018-10-11T17:54:14.450Z,20.90
2018-10-11T17:56:58.454Z,20.90
2018-10-11T17:59:41.316Z,20.80
2018-10-11T18:05:12.490Z,20.80
2018-10-11T18:07:44.556Z,20.70
2018-10-11T18:10:19.234Z,20.70
2018-10-11T18:13:06.957Z,20.70
2018-10-11T18:15:57.867Z,20.70
2018-10-11T18:18:45.660Z,20.70
2018-10-11T18:21:28.496Z,20.60
2018-10-11T18:24:01.801Z,20.60
2018-10-11T18:26:34.593Z,20.60
2018-10-11T18:29:08.709Z,20.60
2018-10-11T18:34:15.529Z,20.50
2018-10-11T18:39:15.916Z,20.50
2018-10-11T18:41:51.276Z,20.50
2018-10-11T18:44:24.876Z,20.40
2018-10-11T18:49:40.562Z,20.40
2018-10-11T18:52:12.434Z,20.30
2018-10-11T18:57:15.824Z,20.30
2018-10-11T18:59:49.061Z,20.20
2018-10-11T19:02:23.347Z,20.20
2018-10-11T19:04:58.975Z,20.20
2018-10-11T19:07:31.281Z,20.10
2018-10-11T19:12:33.926Z,20.10
2018-10-11T19:15:06.841Z,20.00
2018-10-11T19:17:45.047Z,20.00
2018-10-11T19:20:14.928Z,20.00
2018-10-11T19:22:50.418Z,19.90
2018-10-11T19:25:22.531Z,20.00
2018-10-11T19:27:52.793Z,19.90
2018-10-11T19:30:28.682Z,19.90
2018-10-11T19:33:01.887Z,19.90
2018-10-11T19:35:32.615Z,19.80
2018-10-11T19:38:02.498Z,19.80
2018-10-11T19:40:37.151Z,19.80
2018-10-11T19:43:08.659Z,19.80
2018-10-11T19:45:40.151Z,19.70
2018-10-11T19:48:09.894Z,19.70
2018-10-11T19:50:40.829Z,19.60
2018-10-11T19:55:52.469Z,19.50
2018-10-11T19:58:25.082Z,19.50
2018-10-11T20:01:02.047Z,19.40
2018-10-11T20:07:45.167Z,19.40
2018-10-11T20:10:37.590Z,19.30
2018-10-11T20:15:56.126Z,19.20
2018-10-11T20:18:28.396Z,19.20
2018-10-11T20:21:11.353Z,19.20
2018-10-11T20:23:55.369Z,19.20
2018-10-11T20:26:27.213Z,19.20
2018-10-11T20:29:01.456Z,19.20
2018-10-11T20:31:32.577Z,19.10
2018-10-11T20:34:04.461Z,19.10
2018-10-11T20:36:45.955Z,19.10
2018-10-11T20:39:26.741Z,19.10
2018-10-11T20:41:59.411Z,19.10
2018-10-11T20:44:38.973Z,19.10
2018-10-11T20:47:18.274Z,19.00
2018-10-11T20:52:36.502Z,19.00
2018-10-11T20:55:08.404Z,19.00
2018-10-11T20:57:53.680Z,19.00
2018-10-11T21:00:34.742Z,19.00
2018-10-11T21:03:07.312Z,18.90
2018-10-11T21:05:40.902Z,18.90
2018-10-11T21:08:11.045Z,18.90
2018-10-11T21:10:42.035Z,18.90
2018-10-11T21:13:12.516Z,18.90
2018-10-11T21:15:43.434Z,18.80
2018-10-11T21:18:14.568Z,18.80
2018-10-11T21:20:55.588Z,18.80
2018-10-11T21:23:31.401Z,18.80
2018-10-11T21:26:01.412Z,18.80
2018-10-11T21:28:32.499Z,18.80
2018-10-11T21:31:12.876Z,18.80
2018-10-11T21:33:45.731Z,18.80
2018-10-11T21:36:15.862Z,18.80
2018-10-11T21:41:19.801Z,18.80
2018-10-11T21:43:56.926Z,18.80
2018-10-11T21:46:29.638Z,18.80
2018-10-11T21:51:31.616Z,18.80
2018-10-11T21:54:02.745Z,18.80
2018-10-11T21:56:41.783Z,18.80
2018-10-11T21:59:15.440Z,18.70
2018-10-11T22:01:58.573Z,18.80
2018-10-11T22:09:32.195Z,18.80
2018-10-11T22:12:09.542Z,18.80
2018-10-11T22:14:41.090Z,18.80
2018-10-11T22:17:15.339Z,18.70
2018-10-11T22:19:46.325Z,18.80
2018-10-11T22:22:18.390Z,18.70
2018-10-11T22:24:50.996Z,18.70
2018-10-11T22:27:26.159Z,18.70
2018-10-11T22:29:56.721Z,18.70
2018-10-11T22:32:29.655Z,18.60
2018-10-11T22:35:01.636Z,18.60
2018-10-11T22:37:31.234Z,18.60
2018-10-11T22:40:03.444Z,18.60
2018-10-11T22:45:03.029Z,18.60
2018-10-11T22:47:38.871Z,18.60
2018-10-11T22:50:08.775Z,18.60
2018-10-11T22:52:45.545Z,18.50
2018-10-11T22:57:48.467Z,18.50
2018-10-11T23:00:21.777Z,18.60
2018-10-11T23:02:52.836Z,18.50
2018-10-11T23:05:23.448Z,18.50
2018-10-11T23:07:53.561Z,18.60
2018-10-11T23:12:57.609Z,18.50
2018-10-11T23:15:28.648Z,18.50
2018-10-11T23:17:58.572Z,18.50
2018-10-11T23:20:28.639Z,18.40
2018-10-11T23:25:29.812Z,18.40
2018-10-11T23:28:01.200Z,18.30
2018-10-11T23:33:09.935Z,18.30
2018-10-11T23:35:40.514Z,18.30
2018-10-11T23:38:11.177Z,18.30
2018-10-11T23:40:41.345Z,18.20
2018-10-11T23:43:11.396Z,18.30
2018-10-11T23:45:49.562Z,18.20
2018-10-11T23:48:29.855Z,18.20
2018-10-11T23:53:33.924Z,18.20
2018-10-11T23:56:03.751Z,18.20
